Time;durP1;ratioP1;P1;durP2;ratioP2;P2;SDS_P1;SDS_P2;PMS_P1;PMS_P2;Temp;Humidity;BMP_temperature;BMP_pressure;BME280_temperature;BME280_humidity;BME280_pressure;Samples;Min_cycle;Max_cycle;Signal;HPM_P1;HPM_P2
2023/09/13 00:04:13;;;;;;;15.60;14.20;;;25.90;60.40;;;;;;229510;1252;23104;-59
2023/09/13 00:09:15;;;;;;;15.30;13.90;;;25.90;60.30;;;;;;229464;1263;22341;-58
2023/09/13 00:14:18;;;;;;;15.40;13.90;;;26.00;60.20;;;;;;229402;1263;187759;-58
2023/09/13 00:19:21;;;;;;;15.30;14.00;;;25.90;60.10;;;;;;229517;1252;22363;-58
2023/09/13 00:24:23;;;;;;;15.30;14.00;;;25.90;60.00;;;;;;229495;1252;22246;-58
2023/09/13 00:29:30;;;;;;;15.10;13.60;;;25.90;59.80;;;;;;229540;1255;22413;-58
2023/09/13 00:34:32;;;;;;;15.40;14.00;;;25.90;59.80;;;;;;229340;1259;22275;-58
2023/09/13 00:39:35;;;;;;;15.40;13.20;;;25.90;60.00;;;;;;229379;1263;22280;-60
2023/09/13 00:44:38;;;;;;;14.00;12.70;;;25.80;59.90;;;;;;229422;1263;22266;-60
2023/09/13 00:49:40;;;;;;;15.20;13.60;;;25.80;60.00;;;;;;229443;1263;22325;-60
2023/09/13 00:54:44;;;;;;;15.00;13.70;;;25.80;60.10;;;;;;224038;1248;22523;-60
2023/09/13 00:59:47;;;;;;;15.10;13.60;;;25.70;60.00;;;;;;229571;1262;22277;-59
2023/09/13 01:04:50;;;;;;;15.90;14.10;;;25.70;60.20;;;;;;229501;1251;23044;-60
2023/09/13 01:09:53;;;;;;;14.40;13.10;;;25.70;60.00;;;;;;229433;1263;22274;-60
2023/09/13 01:14:55;;;;;;;14.90;13.20;;;25.80;60.00;;;;;;229486;1252;23066;-60
2023/09/13 01:20:10;;;;;;;14.50;13.10;;;25.70;60.40;;;;;;229510;1252;22315;-60
2023/09/13 01:25:53;;;;;;;14.50;13.10;;;25.80;60.00;;;;;;229482;1259;22376;-60
2023/09/13 01:30:57;;;;;;;14.30;12.80;;;25.70;59.70;;;;;;229524;1255;23068;-61
2023/09/13 01:35:59;;;;;;;15.70;14.10;;;25.70;59.80;;;;;;229543;1263;22354;-60
2023/09/13 01:41:13;;;;;;;15.50;13.90;;;25.70;60.00;;;;;;229480;1264;22314;-60
2023/09/13 01:46:16;;;;;;;15.60;14.00;;;25.60;60.10;;;;;;229663;1263;22326;-60
2023/09/13 01:51:20;;;;;;;15.70;14.10;;;25.60;60.00;;;;;;229517;1260;22642;-60
2023/09/13 01:56:23;;;;;;;15.60;14.20;;;25.60;60.10;;;;;;229511;1252;22338;-60
2023/09/13 02:01:25;;;;;;;16.50;15.00;;;25.70;60.40;;;;;;229550;1263;22261;-60
2023/09/13 02:06:28;;;;;;;15.50;13.80;;;25.70;60.30;;;;;;229521;1263;22275;-60
2023/09/13 02:11:32;;;;;;;15.70;14.20;;;25.70;60.10;;;;;;229475;1263;23038;-60
2023/09/13 02:16:35;;;;;;;16.60;14.90;;;25.70;59.90;;;;;;229471;1263;22381;-60
2023/09/13 02:21:38;;;;;;;16.10;14.00;;;25.70;59.90;;;;;;229544;1248;22752;-60
2023/09/13 02:26:40;;;;;;;15.90;14.10;;;25.70;59.70;;;;;;229582;1252;23071;-60
2023/09/13 02:31:43;;;;;;;15.40;13.30;;;25.70;59.40;;;;;;229551;1260;22285;-60
2023/09/13 02:36:47;;;;;;;15.20;13.80;;;25.70;59.60;;;;;;229486;1252;23293;-60
2023/09/13 02:41:50;;;;;;;15.50;13.80;;;25.60;59.50;;;;;;229417;1263;22281;-60
2023/09/13 02:46:53;;;;;;;15.90;14.30;;;25.60;59.50;;;;;;229451;1252;22673;-59
2023/09/13 02:51:55;;;;;;;16.00;13.90;;;25.60;59.60;;;;;;229655;1263;22374;-60
2023/09/13 02:56:58;;;;;;;15.30;14.00;;;25.50;59.60;;;;;;229480;1252;22285;-60
2023/09/13 03:02:02;;;;;;;15.50;13.60;;;25.60;59.60;;;;;;229461;1252;22290;-60
2023/09/13 03:07:05;;;;;;;16.00;14.20;;;25.60;59.30;;;;;;229520;1249;22354;-60
2023/09/13 03:12:08;;;;;;;15.00;13.70;;;25.50;59.30;;;;;;229653;1247;23150;-60
2023/09/13 03:17:13;;;;;;;15.90;14.30;;;25.50;59.30;;;;;;229498;1251;22273;-60
2023/09/13 03:22:19;;;;;;;15.20;13.80;;;25.50;59.50;;;;;;229520;1264;22285;-60
2023/09/13 03:27:22;;;;;;;14.50;13.10;;;25.50;60.00;;;;;;229623;1255;22974;-60
2023/09/13 03:32:25;;;;;;;16.50;14.90;;;25.40;59.50;;;;;;229560;1253;22314;-60
2023/09/13 03:37:28;;;;;;;15.80;14.20;;;25.40;59.50;;;;;;229595;1248;22271;-60
2023/09/13 03:42:31;;;;;;;15.80;14.20;;;25.40;59.70;;;;;;229576;1247;22433;-60
2023/09/13 03:47:34;;;;;;;16.20;13.80;;;25.40;59.70;;;;;;229521;1252;22366;-60
2023/09/13 03:52:37;;;;;;;15.50;14.20;;;25.40;59.60;;;;;;229363;1252;23165;-60
2023/09/13 03:57:40;;;;;;;16.70;14.30;;;25.40;59.60;;;;;;229630;1254;22271;-60
2023/09/13 04:02:43;;;;;;;16.90;14.80;;;25.40;59.60;;;;;;228291;1253;25332;-60
2023/09/13 04:07:46;;;;;;;16.00;14.60;;;25.40;59.90;;;;;;229584;1247;22442;-60
2023/09/13 04:12:49;;;;;;;15.40;14.00;;;25.40;59.80;;;;;;229627;1251;22260;-60
2023/09/13 04:17:52;;;;;;;16.50;14.90;;;25.40;59.90;;;;;;229521;1251;22284;-60
2023/09/13 04:22:55;;;;;;;16.20;14.50;;;25.40;59.90;;;;;;229597;1251;22257;-60
2023/09/13 04:27:57;;;;;;;15.60;14.00;;;25.30;59.70;;;;;;229583;1247;22271;-60
2023/09/13 04:33:02;;;;;;;15.40;13.70;;;25.40;59.80;;;;;;229589;1247;23120;-60
2023/09/13 04:38:05;;;;;;;15.40;13.80;;;25.40;59.80;;;;;;229544;1248;23022;-60
2023/09/13 04:43:08;;;;;;;15.60;14.20;;;25.30;59.70;;;;;;229502;1247;22277;-61
2023/09/13 04:48:11;;;;;;;15.50;14.10;;;25.30;59.80;;;;;;229553;1250;22317;-62
2023/09/13 04:53:14;;;;;;;15.70;14.30;;;25.30;59.90;;;;;;229553;1253;22257;-61
2023/09/13 04:58:17;;;;;;;16.00;14.40;;;25.30;60.10;;;;;;229527;1248;22301;-61
2023/09/13 05:03:20;;;;;;;16.70;15.10;;;25.30;60.00;;;;;;229564;1263;22342;-61
2023/09/13 05:08:23;;;;;;;17.80;15.40;;;25.30;60.10;;;;;;229562;1248;22260;-61
2023/09/13 05:13:25;;;;;;;16.50;14.90;;;25.30;60.30;;;;;;229625;1249;23525;-61
2023/09/13 05:18:28;;;;;;;16.70;15.00;;;25.30;60.30;;;;;;229656;1248;22313;-61
2023/09/13 05:23:31;;;;;;;15.20;13.60;;;25.20;60.30;;;;;;229611;1248;23031;-61
2023/09/13 05:28:34;;;;;;;16.30;14.60;;;25.20;60.40;;;;;;229618;1248;22404;-61
2023/09/13 05:33:36;;;;;;;16.30;14.60;;;25.30;60.60;;;;;;229528;1251;24009;-60
2023/09/13 05:38:40;;;;;;;16.70;14.50;;;25.30;60.80;;;;;;229606;1248;22278;-59
2023/09/13 05:43:43;;;;;;;17.80;16.00;;;25.20;61.50;;;;;;229608;1263;22243;-59
2023/09/13 05:48:46;;;;;;;18.80;16.90;;;24.70;62.50;;;;;;229573;1251;22392;-59
2023/09/13 05:53:49;;;;;;;18.80;16.30;;;24.40;63.60;;;;;;229570;1251;22264;-59
2023/09/13 05:58:52;;;;;;;18.80;16.90;;;24.40;64.50;;;;;;229574;1247;22278;-59
2023/09/13 06:03:55;;;;;;;18.70;16.70;;;24.40;64.90;;;;;;229525;1249;22290;-60
2023/09/13 06:09:03;;;;;;;19.20;15.90;;;24.30;65.60;;;;;;229371;1264;22354;-58
2023/09/13 06:14:07;;;;;;;21.30;15.60;;;24.60;65.40;;;;;;229407;1254;22284;-61
2023/09/13 06:19:13;;;;;;;17.80;15.00;;;25.10;64.30;;;;;;229502;1261;22973;-61
2023/09/13 06:24:16;;;;;;;22.10;15.90;;;25.40;63.60;;;;;;229486;1247;23126;-60
2023/09/13 06:29:18;;;;;;;18.20;13.50;;;25.50;63.40;;;;;;229544;1247;22374;-60
2023/09/13 06:34:21;;;;;;;15.90;14.40;;;25.60;63.10;;;;;;229517;1261;23020;-60
2023/09/13 06:39:27;;;;;;;17.00;14.50;;;25.60;63.20;;;;;;229595;1263;22199;-59
2023/09/13 06:44:30;;;;;;;15.30;13.70;;;25.70;63.60;;;;;;229388;1263;23071;-58
2023/09/13 06:49:48;;;;;;;16.00;14.20;;;25.70;63.00;;;;;;229533;1263;22450;-60
2023/09/13 06:54:53;;;;;;;17.50;15.00;;;25.50;64.00;;;;;;229540;1257;22400;-58
2023/09/13 06:59:58;;;;;;;19.40;15.10;;;25.30;64.60;;;;;;229565;1247;22279;-57
2023/09/13 07:05:04;;;;;;;29.20;15.50;;;25.30;64.70;;;;;;229537;1263;22428;-58
2023/09/13 07:10:10;;;;;;;20.40;15.10;;;25.30;64.90;;;;;;229551;1263;22286;-58
2023/09/13 07:15:12;;;;;;;15.90;14.30;;;25.30;65.00;;;;;;229514;1255;22254;-58
2023/09/13 07:20:15;;;;;;;21.80;14.80;;;25.40;64.90;;;;;;229456;1257;22269;-59
2023/09/13 07:25:18;;;;;;;23.20;15.40;;;25.60;64.90;;;;;;229474;1263;22982;-58
2023/09/13 07:30:20;;;;;;;18.70;14.00;;;25.40;65.40;;;;;;229528;1256;22344;-57
2023/09/13 07:35:23;;;;;;;22.50;14.80;;;25.60;65.10;;;;;;229513;1263;22502;-59
2023/09/13 07:40:26;;;;;;;19.00;15.20;;;25.50;65.20;;;;;;229505;1247;23522;-58
2023/09/13 07:45:31;;;;;;;16.80;14.80;;;25.70;65.40;;;;;;229474;1251;23063;-60
2023/09/13 07:50:40;;;;;;;19.20;15.30;;;25.80;65.70;;;;;;225203;1263;24372;-59
2023/09/13 07:55:44;;;;;;;18.20;15.50;;;25.90;65.20;;;;;;229464;1263;22236;-59
2023/09/13 08:00:46;;;;;;;19.00;16.10;;;25.90;65.50;;;;;;229508;1248;22259;-60
2023/09/13 08:05:50;;;;;;;19.90;16.60;;;25.90;65.10;;;;;;229550;1263;22352;-59
2023/09/13 08:10:53;;;;;;;16.80;15.00;;;25.90;64.90;;;;;;229531;1249;22668;-59
2023/09/13 08:15:55;;;;;;;17.80;15.50;;;26.00;64.30;;;;;;229570;1253;22275;-59
2023/09/13 08:20:58;;;;;;;16.80;14.10;;;26.10;63.90;;;;;;229527;1263;22279;-60
2023/09/13 08:26:01;;;;;;;16.60;14.00;;;26.10;63.50;;;;;;229530;1263;22308;-59
2023/09/13 08:31:25;;;;;;;21.30;13.90;;;26.20;62.90;;;;;;229475;1263;23175;-58
2023/09/13 08:36:28;;;;;;;15.50;13.90;;;26.10;63.40;;;;;;229532;1249;22321;-59
2023/09/13 08:41:30;;;;;;;15.70;12.80;;;26.20;63.30;;;;;;229510;1263;22275;-59
2023/09/13 08:46:34;;;;;;;15.70;12.70;;;26.00;63.60;;;;;;228418;1256;22648;-59
2023/09/13 08:51:37;;;;;;;14.00;12.60;;;26.20;63.50;;;;;;229470;1248;22297;-58
2023/09/13 08:56:42;;;;;;;17.20;14.40;;;26.20;63.60;;;;;;226186;1263;22517;-60
2023/09/13 09:01:48;;;;;;;15.30;12.30;;;26.40;62.80;;;;;;229564;1263;22260;-60
2023/09/13 09:06:52;;;;;;;13.10;11.90;;;26.40;62.80;;;;;;229552;1255;22265;-59
2023/09/13 09:11:59;;;;;;;13.20;11.90;;;26.50;62.10;;;;;;229522;1263;22438;-60
2023/09/13 09:17:02;;;;;;;15.60;11.90;;;26.50;61.90;;;;;;229482;1258;23629;-59
2023/09/13 09:22:07;;;;;;;13.10;11.80;;;26.70;61.90;;;;;;229546;1255;22292;-59
2023/09/13 09:27:12;;;;;;;12.60;11.20;;;26.90;61.80;;;;;;229577;1248;23058;-60
2023/09/13 09:32:15;;;;;;;14.00;12.60;;;26.90;61.40;;;;;;229504;1248;22293;-59
2023/09/13 09:37:18;;;;;;;13.90;12.50;;;26.90;61.50;;;;;;229559;1248;22343;-59
2023/09/13 09:42:21;;;;;;;14.40;12.00;;;27.10;61.00;;;;;;229503;1252;22301;-60
2023/09/13 09:47:23;;;;;;;12.80;11.50;;;27.10;60.90;;;;;;229490;1248;22369;-60
2023/09/13 09:52:27;;;;;;;12.30;11.20;;;27.20;60.90;;;;;;226233;1248;24240;-59
2023/09/13 09:57:29;;;;;;;14.70;12.20;;;27.00;60.80;;;;;;229540;1248;22408;-58
2023/09/13 10:02:33;;;;;;;12.20;11.00;;;27.00;61.40;;;;;;229589;1249;22269;-58
2023/09/13 10:07:42;;;;;;;12.90;11.50;;;27.40;60.60;;;;;;229530;1249;23144;-59
2023/09/13 10:12:47;;;;;;;13.90;11.40;;;27.50;60.20;;;;;;229548;1251;22282;-59
2023/09/13 10:17:50;;;;;;;17.30;11.50;;;27.60;60.10;;;;;;229474;1249;22384;-62
2023/09/13 10:22:56;;;;;;;12.90;11.50;;;27.70;60.20;;;;;;229498;1251;23259;-62
2023/09/13 10:28:01;;;;;;;12.70;11.50;;;27.80;60.00;;;;;;229547;1248;23271;-62
2023/09/13 10:33:06;;;;;;;16.30;11.20;;;28.00;60.30;;;;;;229501;1248;23715;-62
2023/09/13 10:38:18;;;;;;;13.40;11.90;;;28.10;60.00;;;;;;229567;1248;22264;-56
2023/09/13 10:43:24;;;;;;;13.60;12.20;;;28.00;60.20;;;;;;229520;1248;22335;-56
2023/09/13 10:48:27;;;;;;;21.80;13.50;;;27.60;61.00;;;;;;229460;1248;22352;-57
2023/09/13 10:53:31;;;;;;;14.00;11.80;;;28.00;60.40;;;;;;229491;1249;22281;-56
2023/09/13 10:58:34;;;;;;;13.60;11.50;;;28.10;59.90;;;;;;229511;1249;22254;-56
2023/09/13 11:03:37;;;;;;;16.20;12.00;;;27.90;60.10;;;;;;229549;1248;23055;-57
2023/09/13 11:08:40;;;;;;;16.30;13.20;;;27.80;60.90;;;;;;229497;1248;22329;-57
2023/09/13 11:13:47;;;;;;;12.90;11.80;;;27.80;60.80;;;;;;229561;1248;22286;-57
2023/09/13 11:18:52;;;;;;;14.20;12.70;;;28.00;60.50;;;;;;229589;1251;23197;-61
2023/09/13 11:23:55;;;;;;;14.20;11.40;;;28.10;60.20;;;;;;229568;1263;23029;-61
2023/09/13 11:29:22;;;;;;;12.30;11.20;;;28.00;60.30;;;;;;229477;1263;22284;-61
2023/09/13 11:34:24;;;;;;;14.10;12.60;;;27.80;60.50;;;;;;229512;1263;22343;-61
2023/09/13 11:39:27;;;;;;;15.20;12.00;;;27.90;60.00;;;;;;229516;1263;22295;-60
2023/09/13 11:44:30;;;;;;;13.60;12.20;;;27.80;60.30;;;;;;229538;1263;22365;-60
2023/09/13 11:49:40;;;;;;;15.60;11.70;;;27.90;60.00;;;;;;229518;1263;22506;-61
2023/09/13 11:55:11;;;;;;;14.90;13.30;;;27.90;59.80;;;;;;229528;1250;22998;-60
2023/09/13 12:00:41;;;;;;;14.30;11.90;;;27.90;59.80;;;;;;229596;1252;22263;-62
2023/09/13 12:05:45;;;;;;;12.80;11.70;;;27.70;60.30;;;;;;229493;1263;22335;-63
2023/09/13 12:11:08;;;;;;;14.60;12.90;;;27.60;61.70;;;;;;229400;1263;207171;-63
2023/09/13 12:16:18;;;;;;;13.80;12.50;;;27.40;62.60;;;;;;229563;1260;22290;-63
2023/09/13 12:21:21;;;;;;;22.10;13.00;;;27.30;63.40;;;;;;229529;1260;22261;-58
2023/09/13 12:26:25;;;;;;;12.70;11.70;;;27.30;63.60;;;;;;229516;1249;22938;-58
2023/09/13 12:31:27;;;;;;;13.80;12.40;;;27.30;64.20;;;;;;229489;1248;22413;-58
2023/09/13 12:36:31;;;;;;;14.40;13.00;;;27.20;64.70;;;;;;229495;1258;22251;-58
2023/09/13 12:41:34;;;;;;;14.20;12.90;;;27.20;65.50;;;;;;229496;1251;22447;-58
2023/09/13 12:46:37;;;;;;;19.40;14.60;;;27.10;67.20;;;;;;229494;1247;22380;-58
2023/09/13 12:51:40;;;;;;;16.40;13.40;;;27.00;68.30;;;;;;226330;1249;25238;-61
2023/09/13 12:56:44;;;;;;;15.60;13.60;;;27.20;68.70;;;;;;229511;1263;22273;-62
2023/09/13 13:01:54;;;;;;;14.10;12.60;;;27.20;68.10;;;;;;227927;1264;22522;-62
2023/09/13 13:07:03;;;;;;;16.30;13.70;;;27.20;68.50;;;;;;224920;1263;22642;-62
2023/09/13 13:12:14;;;;;;;15.20;12.70;;;27.30;68.00;;;;;;229378;1249;22800;-62
2023/09/13 13:17:17;;;;;;;;;;;27.30;68.10;;;;;;229488;1263;22483;-63
2023/09/13 13:22:22;;;;;;;16.20;12.90;;;27.30;67.50;;;;;;220823;1252;25286;-62
2023/09/13 13:27:28;;;;;;;13.30;12.20;;;27.30;68.20;;;;;;229431;1249;22765;-63
2023/09/13 13:32:31;;;;;;;13.00;11.70;;;27.20;68.40;;;;;;222919;1263;24367;-61
2023/09/13 13:37:34;;;;;;;13.00;11.70;;;27.30;68.10;;;;;;229574;1263;22286;-63
2023/09/13 13:42:37;;;;;;;15.10;12.80;;;27.20;68.70;;;;;;225234;1264;22482;-60
2023/09/13 13:47:40;;;;;;;13.20;12.00;;;27.20;68.30;;;;;;229494;1263;22270;-62
2023/09/13 13:52:43;;;;;;;14.10;12.60;;;27.20;68.50;;;;;;229621;1264;22350;-63
2023/09/13 13:57:46;;;;;;;15.10;13.70;;;27.30;68.50;;;;;;229378;1263;22798;-63
2023/09/13 14:02:54;;;;;;;14.80;13.40;;;27.40;68.80;;;;;;228634;1263;22575;-63
2023/09/13 14:08:13;;;;;;;13.60;12.50;;;27.30;68.90;;;;;;228635;1263;22809;-57
2023/09/13 14:13:18;;;;;;;16.20;14.60;;;27.30;69.80;;;;;;228166;1263;22554;-57
2023/09/13 14:18:22;;;;;;;17.60;15.60;;;27.10;69.20;;;;;;228249;1262;22558;-58
2023/09/13 14:23:25;;;;;;;17.40;14.60;;;27.00;70.10;;;;;;224393;1263;22518;-52
2023/09/13 14:28:31;;;;;;;16.70;14.40;;;26.90;69.60;;;;;;229600;1264;22406;-52
2023/09/13 14:33:37;;;;;;;15.60;13.90;;;26.90;69.40;;;;;;229643;1263;22268;-53
2023/09/13 14:38:41;;;;;;;15.30;13.70;;;26.70;68.60;;;;;;229739;1249;22365;-58
2023/09/13 14:43:44;;;;;;;14.30;12.80;;;26.70;67.40;;;;;;229677;1263;22257;-54
2023/09/13 14:48:52;;;;;;;13.40;12.40;;;26.70;66.50;;;;;;229624;1247;22287;-54
2023/09/13 14:53:56;;;;;;;14.40;11.20;;;26.80;65.80;;;;;;226165;1263;22521;-57
2023/09/13 14:58:59;;;;;;;14.00;10.70;;;26.70;65.20;;;;;;229618;1263;22981;-58
2023/09/13 15:04:03;;;;;;;12.00;10.70;;;26.70;64.40;;;;;;229548;1264;22280;-58
2023/09/13 15:09:07;;;;;;;11.40;10.30;;;26.80;64.50;;;;;;229558;1247;22286;-58
2023/09/13 15:14:13;;;;;;;11.30;10.30;;;26.70;64.20;;;;;;229547;1261;22779;-57
2023/09/13 15:19:18;;;;;;;10.80;9.70;;;26.80;64.20;;;;;;229358;1248;22337;-58
2023/09/13 15:24:25;;;;;;;15.00;11.30;;;26.80;64.60;;;;;;229395;1263;23129;-57
2023/09/13 15:29:38;;;;;;;12.50;10.80;;;26.90;67.50;;;;;;229237;1261;22297;-57
2023/09/13 15:34:49;;;;;;;12.00;10.50;;;27.10;66.90;;;;;;229374;1263;22378;-59
2023/09/13 15:40:11;;;;;;;10.80;9.90;;;27.10;67.80;;;;;;229417;1249;22297;-58
2023/09/13 15:45:27;;;;;;;11.90;10.80;;;26.90;67.40;;;;;;229345;1253;22247;-57
2023/09/13 15:50:52;;;;;;;11.50;10.30;;;26.90;67.50;;;;;;229438;1263;22265;-59
2023/09/13 15:56:15;;;;;;;10.80;9.80;;;26.80;67.00;;;;;;229472;1260;22478;-59
2023/09/13 16:01:28;;;;;;;12.60;10.60;;;26.80;66.30;;;;;;229385;1251;23277;-58
2023/09/13 16:06:42;;;;;;;11.20;9.60;;;26.90;65.80;;;;;;229334;1256;23516;-58
2023/09/13 16:12:13;;;;;;;9.80;9.10;;;26.90;66.30;;;;;;229315;1256;22284;-58
2023/09/13 16:17:31;;;;;;;16.20;12.30;;;26.90;67.00;;;;;;229308;1249;22434;-58
2023/09/13 16:22:37;;;;;;;14.30;9.90;;;26.90;66.70;;;;;;229443;1251;22267;-58
2023/09/13 16:27:41;;;;;;;11.10;9.40;;;27.00;66.00;;;;;;229551;1252;23241;-58
2023/09/13 16:32:53;;;;;;;11.10;9.20;;;26.90;64.90;;;;;;229423;1263;22259;-58
2023/09/13 16:38:01;;;;;;;10.50;9.20;;;26.60;65.70;;;;;;229447;1252;22338;-58
2023/09/13 16:43:08;;;;;;;13.30;8.60;;;26.60;66.10;;;;;;229301;1251;22302;-59
2023/09/13 16:48:15;;;;;;;9.60;8.60;;;26.60;65.50;;;;;;229434;1252;22310;-58
2023/09/13 16:53:41;;;;;;;9.50;8.30;;;26.90;64.80;;;;;;229428;1251;22268;-58
2023/09/13 16:58:55;;;;;;;10.20;8.70;;;26.90;64.80;;;;;;229417;1252;22265;-59
2023/09/13 17:04:05;;;;;;;11.60;9.10;;;26.80;65.70;;;;;;229501;1252;22433;-59
2023/09/13 17:09:18;;;;;;;8.70;8.10;;;26.70;65.30;;;;;;229570;1252;22303;-58
2023/09/13 17:14:31;;;;;;;9.70;8.80;;;26.70;65.50;;;;;;229529;1247;22285;-58
2023/09/13 17:19:38;;;;;;;10.60;9.50;;;26.60;65.30;;;;;;229609;1248;22984;-56
2023/09/13 17:24:41;;;;;;;9.80;8.70;;;26.50;65.10;;;;;;229418;1264;23282;-58
2023/09/13 17:29:44;;;;;;;8.20;7.60;;;26.70;64.70;;;;;;229604;1252;22330;-59
2023/09/13 17:34:48;;;;;;;8.60;7.70;;;26.50;65.00;;;;;;229442;1252;22298;-59
2023/09/13 17:39:56;;;;;;;8.90;7.70;;;26.50;65.50;;;;;;229428;1252;22286;-59
2023/09/13 17:45:01;;;;;;;6.80;5.80;;;26.40;64.70;;;;;;229476;1249;22316;-59
2023/09/13 17:50:05;;;;;;;7.90;5.70;;;26.40;64.40;;;;;;229377;1263;22336;-60
2023/09/13 17:55:11;;;;;;;5.40;5.00;;;26.30;63.90;;;;;;229444;1256;22267;-59
2023/09/13 18:00:15;;;;;;;5.00;4.50;;;26.30;63.70;;;;;;229425;1262;22317;-56
2023/09/13 18:05:18;;;;;;;7.30;4.40;;;26.40;63.50;;;;;;229418;1258;22251;-58
2023/09/13 18:10:23;;;;;;;11.50;4.60;;;26.20;63.30;;;;;;229528;1252;22325;-59
2023/09/13 18:15:27;;;;;;;8.10;4.90;;;26.00;64.00;;;;;;229581;1263;22281;-57
2023/09/13 18:20:32;;;;;;;9.30;4.60;;;26.10;64.30;;;;;;229561;1263;22252;-58
2023/09/13 18:25:36;;;;;;;4.90;4.40;;;26.20;63.60;;;;;;229504;1263;22260;-58
2023/09/13 18:30:39;;;;;;;7.10;3.60;;;26.00;63.70;;;;;;229581;1253;22278;-58
2023/09/13 18:35:45;;;;;;;4.00;3.60;;;25.60;63.70;;;;;;229571;1252;23916;-58
2023/09/13 18:40:48;;;;;;;4.40;3.30;;;25.50;63.90;;;;;;229478;1257;22280;-58
2023/09/13 18:46:08;;;;;;;4.10;3.00;;;25.60;64.50;;;;;;229489;1257;22271;-58
2023/09/13 18:51:12;;;;;;;2.50;2.20;;;25.40;64.60;;;;;;229513;1252;22756;-58
2023/09/13 18:56:17;;;;;;;2.70;2.50;;;25.40;64.50;;;;;;229486;1255;23135;-58
2023/09/13 19:01:21;;;;;;;4.20;2.00;;;25.50;64.40;;;;;;229523;1252;22411;-57
2023/09/13 19:06:30;;;;;;;3.40;2.00;;;25.50;64.30;;;;;;229585;1252;22265;-58
2023/09/13 19:11:37;;;;;;;2.10;1.90;;;25.40;64.50;;;;;;229631;1251;22268;-59
2023/09/13 19:16:42;;;;;;;2.60;1.70;;;25.40;64.30;;;;;;229603;1251;22290;-59
2023/09/13 19:21:47;;;;;;;2.60;1.70;;;25.40;64.30;;;;;;229495;1247;22354;-66
2023/09/13 19:26:51;;;;;;;1.90;1.60;;;25.40;63.80;;;;;;229544;1252;22289;-64
2023/09/13 19:31:56;;;;;;;1.70;1.60;;;25.50;63.20;;;;;;229649;1247;23061;-63
2023/09/13 19:36:59;;;;;;;2.50;1.50;;;25.40;63.00;;;;;;229615;1248;22277;-62
2023/09/13 19:42:02;;;;;;;5.30;1.50;;;25.40;62.70;;;;;;229567;1248;22326;-64
2023/09/13 19:47:06;;;;;;;1.80;1.70;;;25.40;62.70;;;;;;229559;1250;22279;-65
2023/09/13 19:52:11;;;;;;;1.50;1.40;;;25.40;62.60;;;;;;226670;1257;24907;-64
2023/09/13 19:57:18;;;;;;;1.60;1.50;;;25.40;62.90;;;;;;229298;1247;22269;-62
2023/09/13 20:02:21;;;;;;;1.70;1.60;;;25.20;62.80;;;;;;229589;1253;22261;-61
2023/09/13 20:07:25;;;;;;;1.70;1.60;;;25.40;62.60;;;;;;229540;1253;22383;-61
2023/09/13 20:12:29;;;;;;;5.00;1.50;;;25.70;62.10;;;;;;229516;1250;23021;-63
2023/09/13 20:17:32;;;;;;;1.30;1.30;;;25.70;62.10;;;;;;229443;1249;23137;-61
2023/09/13 20:22:36;;;;;;;2.90;1.50;;;25.70;62.20;;;;;;229555;1253;23189;-63
2023/09/13 20:27:39;;;;;;;1.90;1.60;;;25.90;62.00;;;;;;229412;1254;22264;-67
2023/09/13 20:32:43;;;;;;;3.90;1.60;;;25.90;62.60;;;;;;229348;1252;22350;-64
2023/09/13 20:37:46;;;;;;;3.40;1.50;;;25.90;62.20;;;;;;229454;1248;22267;-65
2023/09/13 20:42:50;;;;;;;1.70;1.60;;;26.00;62.10;;;;;;229494;1252;22226;-64
2023/09/13 20:47:52;;;;;;;7.00;1.80;;;26.10;62.20;;;;;;229441;1252;22342;-65
2023/09/13 20:52:57;;;;;;;2.00;1.60;;;26.20;62.10;;;;;;229513;1253;22276;-66
2023/09/13 20:58:00;;;;;;;1.80;1.70;;;26.20;62.00;;;;;;229477;1247;22285;-66
2023/09/13 21:03:03;;;;;;;2.00;1.90;;;26.20;62.00;;;;;;229472;1251;22353;-65
2023/09/13 21:08:06;;;;;;;2.70;1.30;;;26.30;62.10;;;;;;229566;1248;22904;-65
2023/09/13 21:13:09;;;;;;;1.00;1.00;;;26.30;62.10;;;;;;229543;1248;22213;-67
2023/09/13 21:18:12;;;;;;;2.20;1.50;;;26.20;62.10;;;;;;229507;1253;22721;-66
2023/09/13 21:23:14;;;;;;;1.50;1.40;;;26.40;61.70;;;;;;229520;1251;22346;-64
2023/09/13 21:28:19;;;;;;;1.60;1.50;;;26.20;62.00;;;;;;229532;1263;22270;-66
2023/09/13 21:33:22;;;;;;;1.50;1.40;;;26.40;61.40;;;;;;229533;1260;22250;-69
2023/09/13 21:38:26;;;;;;;2.10;1.40;;;26.10;61.60;;;;;;229546;1253;22260;-66
2023/09/13 21:43:29;;;;;;;1.60;1.50;;;26.00;61.70;;;;;;229481;1247;22266;-66
2023/09/13 21:48:32;;;;;;;1.60;1.50;;;25.90;61.80;;;;;;229480;1249;23024;-65
2023/09/13 21:53:35;;;;;;;4.30;1.60;;;26.00;62.00;;;;;;229541;1248;22255;-65
2023/09/13 21:58:38;;;;;;;2.40;1.50;;;25.90;61.40;;;;;;229509;1247;22348;-67
2023/09/13 22:03:42;;;;;;;2.70;1.30;;;25.80;62.00;;;;;;229536;1251;23016;-67
2023/09/13 22:08:45;;;;;;;1.50;1.40;;;26.00;61.50;;;;;;229577;1263;22301;-66
2023/09/13 22:13:48;;;;;;;1.50;1.40;;;26.10;62.40;;;;;;229586;1247;22291;-67
2023/09/13 22:18:51;;;;;;;1.70;1.60;;;26.20;62.30;;;;;;229584;1263;22629;-67
2023/09/13 22:23:54;;;;;;;2.00;1.70;;;26.20;62.30;;;;;;229540;1248;23077;-67
2023/09/13 22:28:56;;;;;;;1.40;1.30;;;26.20;62.30;;;;;;229684;1248;22344;-66
2023/09/13 22:33:59;;;;;;;1.70;1.60;;;26.20;62.20;;;;;;229544;1251;22274;-66
2023/09/13 22:39:03;;;;;;;1.40;1.30;;;26.20;62.20;;;;;;229592;1263;22278;-66
2023/09/13 22:44:12;;;;;;;1.70;1.40;;;26.30;62.30;;;;;;229580;1251;24074;-66
2023/09/13 22:49:15;;;;;;;1.40;1.30;;;26.20;62.50;;;;;;229540;1263;22264;-66
2023/09/13 22:54:19;;;;;;;1.70;1.50;;;26.20;62.40;;;;;;229574;1260;23664;-66
2023/09/13 22:59:23;;;;;;;1.80;1.20;;;26.30;62.60;;;;;;229526;1263;23076;-66
2023/09/13 23:04:26;;;;;;;1.80;1.40;;;26.20;62.50;;;;;;229480;1249;23035;-66
2023/09/13 23:09:28;;;;;;;1.40;1.30;;;26.20;62.50;;;;;;229531;1251;22294;-66
2023/09/13 23:14:33;;;;;;;1.60;1.30;;;26.20;62.70;;;;;;229548;1250;23126;-66
2023/09/13 23:19:36;;;;;;;1.50;1.40;;;26.20;62.50;;;;;;229613;1247;22248;-66
2023/09/13 23:24:39;;;;;;;1.50;1.40;;;26.20;62.50;;;;;;229522;1251;23040;-66
2023/09/13 23:29:41;;;;;;;1.20;1.20;;;26.20;62.70;;;;;;229635;1248;22284;-66
2023/09/13 23:34:44;;;;;;;1.40;1.30;;;26.20;62.80;;;;;;229587;1247;22251;-66
2023/09/13 23:39:47;;;;;;;1.00;1.00;;;26.30;62.70;;;;;;229610;1247;22620;-66
2023/09/13 23:44:51;;;;;;;1.30;1.10;;;26.30;62.70;;;;;;229581;1263;22274;-66
2023/09/13 23:49:54;;;;;;;1.40;1.30;;;26.30;62.90;;;;;;229541;1251;22314;-66
2023/09/13 23:54:56;;;;;;;1.30;1.30;;;26.30;62.90;;;;;;229522;1249;22370;-66
2023/09/13 23:59:59;;;;;;;2.40;1.30;;;26.30;63.70;;;;;;229639;1262;22401;-66
